Houston, Texas
Traffic Map
Current Weather Conditions
Houston, Texas
Overcast
Overcast
50°
Feels Like: 50°
Wind Chill: 50° Ceiling: 2200
Heat Index: 50° Visibility: mi
Dew Point: 45° Wind: 0mph
Humidity: 82% Direction: ° ()
Pressure: 30.1in Gusts: 0mph
Raw Report DataKMCJ 210955Z AUTO 00000KT OVC022 10/07 A3010 RMK AO1
Traffic Incident Summary
Active as of:
Severity:
Category:
InformationThere was an issue retrieving the traffic information for this location. Please try a different location or try again shortly.
Advertisements
Track Severe Weather on mobile